Terminal Aerodrome Forecast
Issued by NWS Cleveland, OH

Home | Current Version | Previous Version | Text Only | Print | Product List | Glossary On
Versions: 1 2 3 4 5 6 7 8 9 10 11 12 13 14 15 16 17 18 19 20 21 22
000
FTUS41 KCLE 292323
TAFMFD
TAF
KMFD 292323Z 3000/3024 02010KT 3SM BR OVC003
     FM301100 15010KT 1 1/2SM BR OVC004
     FM301400 17015G25KT 4SM BR OVC015
     FM301700 19015G25KT 6SM HZ BKN025
     FM301900 19020G30KT P6SM BKN050=

USA.gov is the U.S. government's official web portal to all federal, state and local government web resources and services.